HAZ9545 ZKPY-ZSHC
Flight info
| Callsign | HAZ9545 |
|---|---|
| Flight time | 2h 2m |
| Altitude | 35000 |
| Route | SAS21D SASRI W1 PONIL B332 TOMUK/K0865S1065 B332 SANKO A326 SURAK G455 MATNU W115 PINOT B221 OKTUG OKTUG91 |
| Aircraft | A20N/M-SDE2E3FGHIRWXY/LB1 |
Departure
| Time | 2026-04-28 13:43 |
|---|---|
| Airport | Pyongyang Sunan International Airport (ZKPY) |
Arrival
| Time | 2026-04-28 15:46 |
|---|---|
| Airport | Hangzhou Xiaoshan International Airport (ZSHC) |
| Time | Latitude | Longitude | Altitude | Speed | Heading |
|---|---|---|---|---|---|
| 2026-04-28 13:23 | 39.20148 | 125.67532 | 122 ft | 0 kts | 72° |
| 2026-04-28 13:32 | 39.20148 | 125.67530 | 122 ft | 1 kts | 72° |
| 2026-04-28 13:32 | 39.20143 | 125.67512 | 122 ft | 2 kts | 72° |
| 2026-04-28 13:33 | 39.20139 | 125.67494 | 122 ft | 2 kts | 72° |
| 2026-04-28 13:33 | 39.20137 | 125.67475 | 122 ft | 2 kts | 102° |
| 2026-04-28 13:33 | 39.20142 | 125.67457 | 122 ft | 2 kts | 126° |
| 2026-04-28 13:33 | 39.20153 | 125.67443 | 122 ft | 2 kts | 151° |
| 2026-04-28 13:34 | 39.20160 | 125.67439 | 122 ft | 1 kts | 166° |
| 2026-04-28 13:34 | 39.20164 | 125.67438 | 122 ft | 0 kts | 162° |
| 2026-04-28 13:36 | 39.20140 | 125.67448 | 123 ft | 12 kts | 164° |
| 2026-04-28 13:36 | 39.20008 | 125.67500 | 123 ft | 22 kts | 160° |
| 2026-04-28 13:37 | 39.19881 | 125.67551 | 123 ft | 15 kts | 161° |
| 2026-04-28 13:37 | 39.19791 | 125.67587 | 123 ft | 11 kts | 163° |
| 2026-04-28 13:37 | 39.19721 | 125.67613 | 123 ft | 9 kts | 164° |
| 2026-04-28 13:37 | 39.19665 | 125.67635 | 123 ft | 7 kts | 163° |
| 2026-04-28 13:38 | 39.19604 | 125.67659 | 123 ft | 11 kts | 162° |
| 2026-04-28 13:38 | 39.19520 | 125.67691 | 122 ft | 13 kts | 165° |
| 2026-04-28 13:38 | 39.19421 | 125.67730 | 122 ft | 15 kts | 163° |
| 2026-04-28 13:38 | 39.19315 | 125.67770 | 122 ft | 16 kts | 163° |
| 2026-04-28 13:39 | 39.19206 | 125.67815 | 122 ft | 15 kts | 162° |
| 2026-04-28 13:39 | 39.19132 | 125.67830 | 122 ft | 11 kts | 204° |
| 2026-04-28 13:39 | 39.19100 | 125.67764 | 122 ft | 4 kts | 256° |
| 2026-04-28 13:39 | 39.19099 | 125.67760 | 122 ft | 0 kts | 253° |
| 2026-04-28 13:41 | 39.19098 | 125.67757 | 122 ft | 2 kts | 254° |
| 2026-04-28 13:41 | 39.19090 | 125.67718 | 122 ft | 6 kts | 264° |
| 2026-04-28 13:42 | 39.19107 | 125.67647 | 123 ft | 10 kts | 304° |
| 2026-04-28 13:42 | 39.19170 | 125.67574 | 123 ft | 13 kts | 339° |
| 2026-04-28 13:42 | 39.19365 | 125.67493 | 123 ft | 58 kts | 345° |
| 2026-04-28 13:42 | 39.19951 | 125.67262 | 123 ft | 114 kts | 345° |
| 2026-04-28 13:43 | 39.20857 | 125.66904 | 196 ft | 153 kts | 343° |
| 2026-04-28 13:43 | 39.21907 | 125.66418 | 601 ft | 165 kts | 328° |
| 2026-04-28 13:43 | 39.22315 | 125.65141 | 1137 ft | 170 kts | 259° |
| 2026-04-28 13:43 | 39.21661 | 125.63834 | 1608 ft | 181 kts | 234° |
| 2026-04-28 13:44 | 39.20927 | 125.62442 | 1972 ft | 196 kts | 237° |
| 2026-04-28 13:44 | 39.20021 | 125.61059 | 2412 ft | 208 kts | 230° |
| 2026-04-28 13:44 | 39.18983 | 125.59724 | 2949 ft | 214 kts | 227° |
| 2026-04-28 13:44 | 39.17902 | 125.58404 | 3461 ft | 220 kts | 227° |
| 2026-04-28 13:45 | 39.16745 | 125.56984 | 3774 ft | 239 kts | 227° |
| 2026-04-28 13:45 | 39.15505 | 125.55454 | 4167 ft | 254 kts | 228° |
| 2026-04-28 13:45 | 39.14196 | 125.53832 | 4539 ft | 269 kts | 227° |
| 2026-04-28 13:45 | 39.12842 | 125.52155 | 5027 ft | 278 kts | 227° |
| 2026-04-28 13:46 | 39.11424 | 125.50398 | 5674 ft | 285 kts | 228° |
| 2026-04-28 13:46 | 39.10004 | 125.48638 | 6583 ft | 288 kts | 227° |
| 2026-04-28 13:46 | 39.08543 | 125.46827 | 7502 ft | 291 kts | 227° |
| 2026-04-28 13:46 | 39.07082 | 125.45016 | 8373 ft | 294 kts | 227° |
| 2026-04-28 13:47 | 39.05595 | 125.43172 | 9265 ft | 296 kts | 227° |
| 2026-04-28 13:47 | 39.04549 | 125.41874 | 9875 ft | 298 kts | 227° |
| 2026-04-28 13:47 | 39.03163 | 125.39882 | 10616 ft | 301 kts | 240° |
| 2026-04-28 13:47 | 39.02259 | 125.37391 | 11072 ft | 311 kts | 258° |
| 2026-04-28 13:48 | 39.01929 | 125.35455 | 11375 ft | 320 kts | 263° |
| 2026-04-28 13:48 | 39.01514 | 125.32519 | 11730 ft | 338 kts | 263° |
| 2026-04-28 13:48 | 39.01170 | 125.30029 | 11994 ft | 352 kts | 262° |
| 2026-04-28 13:48 | 39.00785 | 125.27319 | 12326 ft | 365 kts | 262° |
| 2026-04-28 13:49 | 39.00312 | 125.24071 | 13007 ft | 370 kts | 262° |
| 2026-04-28 13:49 | 39.00017 | 125.22065 | 13473 ft | 371 kts | 262° |
| 2026-04-28 13:49 | 38.99529 | 125.18782 | 14151 ft | 374 kts | 262° |
| 2026-04-28 13:49 | 38.99217 | 125.16698 | 14591 ft | 376 kts | 262° |
| 2026-04-28 13:50 | 38.98732 | 125.13463 | 15255 ft | 379 kts | 262° |
| 2026-04-28 13:50 | 38.98227 | 125.10104 | 15910 ft | 383 kts | 262° |
| 2026-04-28 13:50 | 38.97933 | 125.08157 | 16292 ft | 385 kts | 261° |
| 2026-04-28 13:50 | 38.97420 | 125.04752 | 16941 ft | 387 kts | 261° |
| 2026-04-28 13:51 | 38.96891 | 125.01268 | 17571 ft | 390 kts | 262° |
| 2026-04-28 13:51 | 38.96616 | 124.99461 | 17905 ft | 392 kts | 262° |
| 2026-04-28 13:51 | 38.96090 | 124.95990 | 18498 ft | 395 kts | 261° |
| 2026-04-28 13:51 | 38.95557 | 124.92478 | 19049 ft | 398 kts | 261° |
| 2026-04-28 13:52 | 38.95181 | 124.90031 | 19496 ft | 398 kts | 261° |
| 2026-04-28 13:52 | 38.94723 | 124.87038 | 20084 ft | 396 kts | 261° |
| 2026-04-28 13:52 | 38.94199 | 124.83611 | 20764 ft | 393 kts | 261° |
| 2026-04-28 13:52 | 38.93670 | 124.80161 | 21485 ft | 388 kts | 261° |
| 2026-04-28 13:53 | 38.93396 | 124.78387 | 21804 ft | 387 kts | 261° |
| 2026-04-28 13:53 | 38.92881 | 124.75050 | 22417 ft | 384 kts | 261° |
| 2026-04-28 13:53 | 38.92359 | 124.71667 | 22993 ft | 383 kts | 261° |
| 2026-04-28 13:53 | 38.91843 | 124.68321 | 23219 ft | 389 kts | 261° |
| 2026-04-28 13:54 | 38.91315 | 124.64893 | 23568 ft | 393 kts | 261° |
| 2026-04-28 13:54 | 38.90786 | 124.61486 | 24052 ft | 391 kts | 261° |
| 2026-04-28 13:54 | 38.90257 | 124.58080 | 24546 ft | 389 kts | 261° |
| 2026-04-28 13:54 | 38.89731 | 124.54708 | 25044 ft | 386 kts | 261° |
| 2026-04-28 13:55 | 38.89202 | 124.51332 | 25351 ft | 389 kts | 261° |
| 2026-04-28 13:55 | 38.88673 | 124.47932 | 25629 ft | 390 kts | 261° |
| 2026-04-28 13:55 | 38.88142 | 124.44562 | 26135 ft | 384 kts | 260° |
| 2026-04-28 13:55 | 38.87619 | 124.41251 | 26769 ft | 375 kts | 261° |
| 2026-04-28 13:56 | 38.87106 | 124.37991 | 27355 ft | 368 kts | 261° |
| 2026-04-28 13:56 | 38.86606 | 124.34830 | 27847 ft | 362 kts | 260° |
| 2026-04-28 13:56 | 38.86101 | 124.31717 | 28424 ft | 355 kts | 258° |
| 2026-04-28 13:56 | 38.85437 | 124.28740 | 29022 ft | 348 kts | 254° |
| 2026-04-28 13:57 | 38.84613 | 124.25876 | 29637 ft | 342 kts | 251° |
| 2026-04-28 13:57 | 38.83629 | 124.23129 | 30219 ft | 338 kts | 249° |
| 2026-04-28 13:57 | 38.82496 | 124.20480 | 30708 ft | 337 kts | 246° |
| 2026-04-28 13:57 | 38.81230 | 124.17969 | 31104 ft | 339 kts | 244° |
| 2026-04-28 13:58 | 38.78579 | 124.12874 | 31195 ft | 346 kts | 244° |
| 2026-04-28 13:58 | 38.75920 | 124.07906 | 31204 ft | 338 kts | 244° |
| 2026-04-28 13:59 | 38.73416 | 124.02840 | 31207 ft | 334 kts | 247° |
| 2026-04-28 13:59 | 38.71257 | 123.97616 | 31211 ft | 332 kts | 251° |
| 2026-04-28 14:00 | 38.69430 | 123.92233 | 31214 ft | 330 kts | 253° |
| 2026-04-28 14:00 | 38.67779 | 123.86661 | 31215 ft | 343 kts | 253° |
| 2026-04-28 14:01 | 38.66069 | 123.80931 | 31217 ft | 347 kts | 253° |
| 2026-04-28 14:01 | 38.64352 | 123.75162 | 31219 ft | 346 kts | 254° |
| 2026-04-28 14:02 | 38.62656 | 123.69452 | 31223 ft | 346 kts | 253° |
| 2026-04-28 14:02 | 38.60944 | 123.63715 | 31224 ft | 347 kts | 254° |
| 2026-04-28 14:03 | 38.59242 | 123.57973 | 31224 ft | 347 kts | 253° |
| 2026-04-28 14:03 | 38.57513 | 123.52200 | 31231 ft | 348 kts | 253° |
| 2026-04-28 14:04 | 38.55806 | 123.46472 | 31231 ft | 347 kts | 253° |
| 2026-04-28 14:04 | 38.54083 | 123.40719 | 31230 ft | 347 kts | 254° |
| 2026-04-28 14:05 | 38.52360 | 123.34977 | 31236 ft | 349 kts | 253° |
| 2026-04-28 14:05 | 38.50621 | 123.29193 | 31237 ft | 348 kts | 252° |
| 2026-04-28 14:06 | 38.48886 | 123.23438 | 31238 ft | 348 kts | 253° |
| 2026-04-28 14:06 | 38.47149 | 123.17680 | 31241 ft | 349 kts | 253° |
| 2026-04-28 14:07 | 38.45397 | 123.11904 | 31244 ft | 351 kts | 253° |
| 2026-04-28 14:07 | 38.43644 | 123.06119 | 31243 ft | 351 kts | 253° |
| 2026-04-28 14:08 | 38.41895 | 123.00346 | 31258 ft | 350 kts | 252° |
| 2026-04-28 14:08 | 38.40138 | 122.94574 | 31239 ft | 351 kts | 252° |
| 2026-04-28 14:09 | 38.38361 | 122.88754 | 31246 ft | 352 kts | 253° |
| 2026-04-28 14:09 | 38.36592 | 122.82964 | 31248 ft | 352 kts | 253° |
| 2026-04-28 14:10 | 38.34821 | 122.77182 | 31248 ft | 352 kts | 252° |
| 2026-04-28 14:10 | 38.33045 | 122.71400 | 31249 ft | 352 kts | 253° |
| 2026-04-28 14:11 | 38.31257 | 122.65581 | 31260 ft | 351 kts | 252° |
| 2026-04-28 14:11 | 38.29466 | 122.59798 | 31253 ft | 353 kts | 251° |
| 2026-04-28 14:12 | 38.26496 | 122.54740 | 31260 ft | 375 kts | 231° |
| 2026-04-28 14:12 | 38.24287 | 122.52822 | 31256 ft | 393 kts | 221° |
| 2026-04-28 14:12 | 38.21681 | 122.51537 | 31261 ft | 417 kts | 208° |
| 2026-04-28 14:13 | 38.18686 | 122.51050 | 31258 ft | 447 kts | 195° |
| 2026-04-28 14:13 | 38.15514 | 122.51599 | 31254 ft | 480 kts | 179° |
| 2026-04-28 14:13 | 38.12381 | 122.53364 | 31288 ft | 517 kts | 161° |
| 2026-04-28 14:13 | 38.09564 | 122.56443 | 31265 ft | 554 kts | 142° |
| 2026-04-28 14:14 | 38.07444 | 122.60635 | 31270 ft | 581 kts | 123° |
| 2026-04-28 14:14 | 38.05924 | 122.65418 | 31334 ft | 585 kts | 120° |
| 2026-04-28 14:14 | 38.04193 | 122.70076 | 31235 ft | 574 kts | 130° |
| 2026-04-28 14:14 | 38.01983 | 122.74102 | 31281 ft | 559 kts | 139° |
| 2026-04-28 14:15 | 37.96957 | 122.81535 | 31238 ft | 552 kts | 144° |
| 2026-04-28 14:15 | 37.92461 | 122.87463 | 31253 ft | 549 kts | 146° |
| 2026-04-28 14:16 | 37.87938 | 122.93269 | 31269 ft | 549 kts | 146° |
| 2026-04-28 14:16 | 37.83448 | 122.99026 | 31271 ft | 549 kts | 146° |
| 2026-04-28 14:17 | 37.79094 | 123.04621 | 31267 ft | 550 kts | 146° |
| 2026-04-28 14:17 | 37.74678 | 123.10296 | 31263 ft | 550 kts | 146° |
| 2026-04-28 14:18 | 37.70313 | 123.15904 | 31267 ft | 547 kts | 146° |
| 2026-04-28 14:18 | 37.66283 | 123.21061 | 31263 ft | 547 kts | 146° |
| 2026-04-28 14:19 | 37.60661 | 123.27503 | 31256 ft | 527 kts | 158° |
| 2026-04-28 14:19 | 37.55957 | 123.30874 | 31259 ft | 502 kts | 171° |
| 2026-04-28 14:20 | 37.50929 | 123.32940 | 31259 ft | 476 kts | 182° |
| 2026-04-28 14:20 | 37.47685 | 123.33580 | 31260 ft | 462 kts | 189° |
| 2026-04-28 14:20 | 37.46012 | 123.33719 | 31258 ft | 453 kts | 192° |
| 2026-04-28 14:21 | 37.40018 | 123.33868 | 31259 ft | 451 kts | 194° |
| 2026-04-28 14:21 | 37.34820 | 123.33974 | 31259 ft | 452 kts | 193° |
| 2026-04-28 14:22 | 37.29917 | 123.34097 | 31253 ft | 453 kts | 193° |
| 2026-04-28 14:22 | 37.23574 | 123.34270 | 31259 ft | 451 kts | 192° |
| 2026-04-28 14:23 | 37.18805 | 123.34405 | 31250 ft | 451 kts | 193° |
| 2026-04-28 14:23 | 37.13691 | 123.34547 | 31254 ft | 454 kts | 192° |
| 2026-04-28 14:24 | 37.07335 | 123.34726 | 31259 ft | 453 kts | 192° |
| 2026-04-28 14:24 | 37.01817 | 123.34889 | 31256 ft | 451 kts | 192° |
| 2026-04-28 14:25 | 36.96226 | 123.35051 | 31258 ft | 450 kts | 192° |
| 2026-04-28 14:25 | 36.89899 | 123.35231 | 31259 ft | 451 kts | 192° |
| 2026-04-28 14:26 | 36.85132 | 123.35367 | 31257 ft | 453 kts | 192° |
| 2026-04-28 14:26 | 36.79332 | 123.35529 | 31261 ft | 454 kts | 192° |
| 2026-04-28 14:27 | 36.73850 | 123.35681 | 31261 ft | 455 kts | 192° |
| 2026-04-28 14:27 | 36.68880 | 123.35817 | 31260 ft | 453 kts | 192° |
| 2026-04-28 14:28 | 36.62499 | 123.35998 | 31265 ft | 453 kts | 192° |
| 2026-04-28 14:28 | 36.57588 | 123.36134 | 31261 ft | 453 kts | 192° |
| 2026-04-28 14:29 | 36.51202 | 123.36311 | 31258 ft | 454 kts | 192° |
| 2026-04-28 14:29 | 36.46394 | 123.36446 | 31256 ft | 455 kts | 192° |
| 2026-04-28 14:30 | 36.40054 | 123.36620 | 31258 ft | 454 kts | 192° |
| 2026-04-28 14:30 | 36.33727 | 123.36799 | 31259 ft | 457 kts | 191° |
| 2026-04-28 14:31 | 36.27393 | 123.36977 | 31261 ft | 456 kts | 191° |
| 2026-04-28 14:31 | 36.21030 | 123.37154 | 31261 ft | 455 kts | 191° |
| 2026-04-28 14:32 | 36.14679 | 123.37334 | 31264 ft | 459 kts | 191° |
| 2026-04-28 14:32 | 36.08287 | 123.37518 | 31269 ft | 456 kts | 191° |
| 2026-04-28 14:33 | 36.01944 | 123.37697 | 31274 ft | 459 kts | 191° |
| 2026-04-28 14:33 | 35.95551 | 123.37874 | 31277 ft | 460 kts | 191° |
| 2026-04-28 14:34 | 35.86000 | 123.38145 | 31278 ft | 457 kts | 191° |
| 2026-04-28 14:35 | 35.79651 | 123.38322 | 31275 ft | 458 kts | 191° |
| 2026-04-28 14:35 | 35.73288 | 123.38498 | 31278 ft | 457 kts | 191° |
| 2026-04-28 14:36 | 35.66896 | 123.38677 | 31278 ft | 459 kts | 191° |
| 2026-04-28 14:36 | 35.60516 | 123.38854 | 31275 ft | 458 kts | 191° |
| 2026-04-28 14:37 | 35.54151 | 123.39031 | 31276 ft | 460 kts | 190° |
| 2026-04-28 14:37 | 35.47749 | 123.39210 | 31275 ft | 460 kts | 191° |
| 2026-04-28 14:38 | 35.41349 | 123.39389 | 31275 ft | 459 kts | 190° |
| 2026-04-28 14:38 | 35.34945 | 123.39562 | 31278 ft | 461 kts | 190° |
| 2026-04-28 14:39 | 35.28577 | 123.39741 | 31279 ft | 459 kts | 190° |
| 2026-04-28 14:39 | 35.22156 | 123.39916 | 31276 ft | 460 kts | 190° |
| 2026-04-28 14:40 | 35.15747 | 123.40094 | 31276 ft | 460 kts | 189° |
| 2026-04-28 14:40 | 35.09390 | 123.40274 | 31277 ft | 461 kts | 190° |
| 2026-04-28 14:41 | 35.02969 | 123.40447 | 31275 ft | 462 kts | 189° |
| 2026-04-28 14:41 | 34.96500 | 123.40834 | 31279 ft | 464 kts | 187° |
| 2026-04-28 14:42 | 34.90089 | 123.41376 | 31278 ft | 465 kts | 187° |
| 2026-04-28 14:42 | 34.83621 | 123.41922 | 31276 ft | 465 kts | 187° |
| 2026-04-28 14:43 | 34.77175 | 123.42474 | 31273 ft | 467 kts | 187° |
| 2026-04-28 14:43 | 34.70712 | 123.43036 | 31279 ft | 464 kts | 187° |
| 2026-04-28 14:44 | 34.64269 | 123.43594 | 31275 ft | 466 kts | 187° |
| 2026-04-28 14:44 | 34.57765 | 123.44155 | 31275 ft | 468 kts | 187° |
| 2026-04-28 14:45 | 34.51282 | 123.44715 | 31276 ft | 468 kts | 186° |
| 2026-04-28 14:45 | 34.45509 | 123.45213 | 31277 ft | 468 kts | 186° |
| 2026-04-28 14:46 | 34.39021 | 123.45776 | 31277 ft | 465 kts | 186° |
| 2026-04-28 14:46 | 34.32577 | 123.46329 | 31275 ft | 467 kts | 186° |
| 2026-04-28 14:47 | 34.26073 | 123.46886 | 31271 ft | 467 kts | 186° |
| 2026-04-28 14:47 | 34.19582 | 123.47442 | 31269 ft | 467 kts | 186° |
| 2026-04-28 14:48 | 34.13099 | 123.47999 | 31263 ft | 468 kts | 186° |
| 2026-04-28 14:48 | 34.06650 | 123.48341 | 31262 ft | 462 kts | 190° |
| 2026-04-28 14:49 | 34.00228 | 123.48363 | 31268 ft | 462 kts | 190° |
| 2026-04-28 14:49 | 33.93783 | 123.48382 | 31264 ft | 463 kts | 189° |
| 2026-04-28 14:50 | 33.87354 | 123.48405 | 31264 ft | 462 kts | 189° |
| 2026-04-28 14:50 | 33.80909 | 123.48431 | 31264 ft | 461 kts | 189° |
| 2026-04-28 14:51 | 33.74501 | 123.48453 | 31261 ft | 462 kts | 189° |
| 2026-04-28 14:51 | 33.68116 | 123.48478 | 31264 ft | 461 kts | 189° |
| 2026-04-28 14:52 | 33.61668 | 123.48502 | 31266 ft | 462 kts | 189° |
| 2026-04-28 14:52 | 33.55222 | 123.48525 | 31268 ft | 462 kts | 189° |
| 2026-04-28 14:53 | 33.48811 | 123.48550 | 31267 ft | 461 kts | 189° |
| 2026-04-28 14:53 | 33.42396 | 123.48573 | 31264 ft | 461 kts | 189° |
| 2026-04-28 14:54 | 33.35971 | 123.48595 | 31263 ft | 459 kts | 188° |
| 2026-04-28 14:54 | 33.29592 | 123.48619 | 31263 ft | 460 kts | 188° |
| 2026-04-28 14:55 | 33.23175 | 123.48644 | 31262 ft | 459 kts | 188° |
| 2026-04-28 14:55 | 33.16827 | 123.48666 | 31260 ft | 460 kts | 188° |
| 2026-04-28 14:56 | 33.10423 | 123.48689 | 31258 ft | 459 kts | 188° |
| 2026-04-28 14:56 | 33.04026 | 123.48714 | 31257 ft | 461 kts | 188° |
| 2026-04-28 14:57 | 32.97619 | 123.48738 | 31255 ft | 458 kts | 188° |
| 2026-04-28 14:57 | 32.91256 | 123.48762 | 31253 ft | 458 kts | 188° |
| 2026-04-28 14:58 | 32.84882 | 123.48785 | 31251 ft | 460 kts | 188° |
| 2026-04-28 14:58 | 32.78466 | 123.48807 | 31249 ft | 459 kts | 188° |
| 2026-04-28 14:59 | 32.72040 | 123.48830 | 31246 ft | 462 kts | 188° |
| 2026-04-28 14:59 | 32.65596 | 123.48855 | 31248 ft | 462 kts | 188° |
| 2026-04-28 15:00 | 32.59156 | 123.48878 | 31246 ft | 462 kts | 188° |
| 2026-04-28 15:00 | 32.52726 | 123.48900 | 31243 ft | 463 kts | 188° |
| 2026-04-28 15:01 | 32.46312 | 123.48922 | 31241 ft | 463 kts | 188° |
| 2026-04-28 15:01 | 32.39865 | 123.48946 | 31236 ft | 463 kts | 187° |
| 2026-04-28 15:02 | 32.33441 | 123.48971 | 31235 ft | 463 kts | 187° |
| 2026-04-28 15:02 | 32.26986 | 123.48991 | 31232 ft | 465 kts | 187° |
| 2026-04-28 15:03 | 32.20490 | 123.49015 | 31237 ft | 465 kts | 187° |
| 2026-04-28 15:03 | 32.14019 | 123.49037 | 31246 ft | 464 kts | 188° |
| 2026-04-28 15:04 | 32.07578 | 123.49062 | 31248 ft | 465 kts | 187° |
| 2026-04-28 15:04 | 32.01127 | 123.49086 | 31250 ft | 463 kts | 187° |
| 2026-04-28 15:05 | 31.94656 | 123.49106 | 31239 ft | 465 kts | 187° |
| 2026-04-28 15:05 | 31.88191 | 123.49060 | 31237 ft | 458 kts | 192° |
| 2026-04-28 15:05 | 31.85140 | 123.48321 | 31236 ft | 445 kts | 205° |
| 2026-04-28 15:06 | 31.82361 | 123.46824 | 31240 ft | 435 kts | 217° |
| 2026-04-28 15:06 | 31.79970 | 123.44712 | 31233 ft | 427 kts | 228° |
| 2026-04-28 15:06 | 31.78034 | 123.42109 | 31242 ft | 420 kts | 239° |
| 2026-04-28 15:07 | 31.75729 | 123.35918 | 31243 ft | 416 kts | 259° |
| 2026-04-28 15:07 | 31.74791 | 123.29250 | 31252 ft | 416 kts | 261° |
| 2026-04-28 15:08 | 31.73881 | 123.22522 | 31245 ft | 417 kts | 261° |
| 2026-04-28 15:08 | 31.72988 | 123.15820 | 31245 ft | 418 kts | 261° |
| 2026-04-28 15:09 | 31.72092 | 123.09109 | 31237 ft | 418 kts | 262° |
| 2026-04-28 15:09 | 31.71197 | 123.02351 | 31240 ft | 418 kts | 262° |
| 2026-04-28 15:10 | 31.70304 | 122.95651 | 31240 ft | 418 kts | 261° |
| 2026-04-28 15:10 | 31.69402 | 122.88923 | 31244 ft | 417 kts | 262° |
| 2026-04-28 15:11 | 31.68502 | 122.82220 | 31244 ft | 416 kts | 261° |
| 2026-04-28 15:11 | 31.67586 | 122.75497 | 31247 ft | 417 kts | 260° |
| 2026-04-28 15:12 | 31.65917 | 122.69012 | 31245 ft | 418 kts | 249° |
| 2026-04-28 15:12 | 31.63090 | 122.63004 | 31250 ft | 423 kts | 238° |
| 2026-04-28 15:13 | 31.59221 | 122.57780 | 31246 ft | 430 kts | 228° |
| 2026-04-28 15:13 | 31.54539 | 122.53383 | 31253 ft | 433 kts | 223° |
| 2026-04-28 15:14 | 31.49685 | 122.49185 | 31249 ft | 436 kts | 220° |
| 2026-04-28 15:14 | 31.44462 | 122.45480 | 31248 ft | 439 kts | 214° |
| 2026-04-28 15:14 | 31.41763 | 122.43865 | 31050 ft | 442 kts | 212° |
| 2026-04-28 15:15 | 31.38905 | 122.42364 | 30733 ft | 446 kts | 209° |
| 2026-04-28 15:15 | 31.36987 | 122.41464 | 30521 ft | 448 kts | 207° |
| 2026-04-28 15:15 | 31.33135 | 122.39741 | 30104 ft | 449 kts | 207° |
| 2026-04-28 15:15 | 31.30180 | 122.38416 | 29786 ft | 450 kts | 207° |
| 2026-04-28 15:16 | 31.27278 | 122.37117 | 29471 ft | 451 kts | 206° |
| 2026-04-28 15:16 | 31.24336 | 122.35803 | 29163 ft | 453 kts | 206° |
| 2026-04-28 15:16 | 31.21380 | 122.34489 | 28859 ft | 453 kts | 206° |
| 2026-04-28 15:16 | 31.18454 | 122.33189 | 28550 ft | 447 kts | 206° |
| 2026-04-28 15:17 | 31.15532 | 122.31896 | 28245 ft | 445 kts | 206° |
| 2026-04-28 15:17 | 31.12642 | 122.30613 | 27937 ft | 444 kts | 206° |
| 2026-04-28 15:17 | 31.09768 | 122.29336 | 27637 ft | 445 kts | 205° |
| 2026-04-28 15:17 | 31.06860 | 122.28047 | 27333 ft | 446 kts | 206° |
| 2026-04-28 15:18 | 31.03980 | 122.26769 | 27032 ft | 446 kts | 205° |
| 2026-04-28 15:18 | 31.01054 | 122.25498 | 26724 ft | 448 kts | 204° |
| 2026-04-28 15:18 | 30.98062 | 122.24371 | 26422 ft | 452 kts | 201° |
| 2026-04-28 15:18 | 30.95055 | 122.23366 | 26119 ft | 453 kts | 201° |
| 2026-04-28 15:19 | 30.92038 | 122.22354 | 25824 ft | 453 kts | 201° |
| 2026-04-28 15:19 | 30.89014 | 122.21343 | 25732 ft | 454 kts | 201° |
| 2026-04-28 15:19 | 30.85945 | 122.20320 | 25726 ft | 454 kts | 201° |
| 2026-04-28 15:19 | 30.83003 | 122.19123 | 25715 ft | 447 kts | 209° |
| 2026-04-28 15:20 | 30.80374 | 122.17248 | 25715 ft | 441 kts | 221° |
| 2026-04-28 15:20 | 30.78169 | 122.14796 | 25718 ft | 436 kts | 232° |
| 2026-04-28 15:20 | 30.76413 | 122.11931 | 25726 ft | 435 kts | 238° |
| 2026-04-28 15:20 | 30.74754 | 122.08993 | 25719 ft | 435 kts | 238° |
| 2026-04-28 15:21 | 30.73115 | 122.06072 | 25721 ft | 436 kts | 238° |
| 2026-04-28 15:21 | 30.71455 | 122.03110 | 25722 ft | 436 kts | 238° |
| 2026-04-28 15:21 | 30.69796 | 122.00155 | 25719 ft | 436 kts | 238° |
| 2026-04-28 15:21 | 30.68145 | 121.97218 | 25718 ft | 442 kts | 239° |
| 2026-04-28 15:22 | 30.66444 | 121.94190 | 25719 ft | 447 kts | 238° |
| 2026-04-28 15:22 | 30.64747 | 121.91174 | 25721 ft | 448 kts | 239° |
| 2026-04-28 15:22 | 30.63041 | 121.88145 | 25723 ft | 448 kts | 239° |
| 2026-04-28 15:22 | 30.61346 | 121.85139 | 25721 ft | 448 kts | 239° |
| 2026-04-28 15:23 | 30.59642 | 121.82116 | 25720 ft | 449 kts | 238° |
| 2026-04-28 15:23 | 30.57923 | 121.79071 | 25720 ft | 449 kts | 239° |
| 2026-04-28 15:23 | 30.56226 | 121.76070 | 25724 ft | 449 kts | 238° |
| 2026-04-28 15:23 | 30.54519 | 121.73046 | 25723 ft | 449 kts | 239° |
| 2026-04-28 15:24 | 30.52804 | 121.70016 | 25723 ft | 449 kts | 238° |
| 2026-04-28 15:24 | 30.51082 | 121.66973 | 25726 ft | 449 kts | 238° |
| 2026-04-28 15:24 | 30.49368 | 121.63947 | 25727 ft | 449 kts | 238° |
| 2026-04-28 15:24 | 30.47674 | 121.60963 | 25724 ft | 450 kts | 239° |
| 2026-04-28 15:25 | 30.45948 | 121.57923 | 25726 ft | 449 kts | 238° |
| 2026-04-28 15:25 | 30.44226 | 121.54890 | 25725 ft | 448 kts | 238° |
| 2026-04-28 15:25 | 30.42512 | 121.51873 | 25724 ft | 448 kts | 239° |
| 2026-04-28 15:25 | 30.40802 | 121.48868 | 25726 ft | 449 kts | 239° |
| 2026-04-28 15:26 | 30.39091 | 121.45860 | 25725 ft | 449 kts | 239° |
| 2026-04-28 15:26 | 30.37362 | 121.42821 | 25727 ft | 449 kts | 239° |
| 2026-04-28 15:26 | 30.35654 | 121.39829 | 25727 ft | 449 kts | 238° |
| 2026-04-28 15:26 | 30.33930 | 121.36788 | 25726 ft | 448 kts | 239° |
| 2026-04-28 15:27 | 30.32237 | 121.33795 | 25730 ft | 448 kts | 239° |
| 2026-04-28 15:27 | 30.30531 | 121.30770 | 25731 ft | 449 kts | 238° |
| 2026-04-28 15:27 | 30.28832 | 121.27768 | 25726 ft | 449 kts | 239° |
| 2026-04-28 15:27 | 30.27115 | 121.24737 | 25725 ft | 449 kts | 238° |
| 2026-04-28 15:28 | 30.25374 | 121.21750 | 25725 ft | 450 kts | 236° |
| 2026-04-28 15:28 | 30.23536 | 121.18855 | 25727 ft | 451 kts | 236° |
| 2026-04-28 15:28 | 30.21666 | 121.15940 | 25730 ft | 450 kts | 235° |
| 2026-04-28 15:28 | 30.19793 | 121.13028 | 25728 ft | 450 kts | 235° |
| 2026-04-28 15:29 | 30.17937 | 121.10141 | 25730 ft | 450 kts | 235° |
| 2026-04-28 15:29 | 30.16065 | 121.07229 | 25727 ft | 450 kts | 235° |
| 2026-04-28 15:29 | 30.14217 | 121.04356 | 25622 ft | 446 kts | 236° |
| 2026-04-28 15:29 | 30.12367 | 121.01482 | 24934 ft | 443 kts | 235° |
| 2026-04-28 15:30 | 30.10540 | 120.98642 | 23661 ft | 449 kts | 235° |
| 2026-04-28 15:30 | 30.08690 | 120.95769 | 22502 ft | 451 kts | 235° |
| 2026-04-28 15:30 | 30.06827 | 120.92871 | 21821 ft | 442 kts | 235° |
| 2026-04-28 15:30 | 30.05014 | 120.90042 | 21059 ft | 437 kts | 235° |
| 2026-04-28 15:31 | 30.03353 | 120.87167 | 20203 ft | 432 kts | 244° |
| 2026-04-28 15:31 | 30.02583 | 120.83904 | 19450 ft | 428 kts | 265° |
| 2026-04-28 15:31 | 30.02951 | 120.80533 | 18794 ft | 426 kts | 286° |
| 2026-04-28 15:31 | 30.04274 | 120.77509 | 18529 ft | 413 kts | 296° |
| 2026-04-28 15:32 | 30.05663 | 120.74695 | 18297 ft | 398 kts | 295° |
| 2026-04-28 15:32 | 30.06003 | 120.73974 | 18238 ft | 393 kts | 294° |
| 2026-04-28 15:32 | 30.07328 | 120.70963 | 17838 ft | 381 kts | 292° |
| 2026-04-28 15:32 | 30.08438 | 120.68191 | 17244 ft | 378 kts | 291° |
| 2026-04-28 15:33 | 30.09480 | 120.65434 | 16604 ft | 377 kts | 290° |
| 2026-04-28 15:33 | 30.10482 | 120.62690 | 16007 ft | 374 kts | 289° |
| 2026-04-28 15:33 | 30.11470 | 120.59929 | 15594 ft | 362 kts | 289° |
| 2026-04-28 15:33 | 30.12392 | 120.57335 | 15303 ft | 342 kts | 289° |
| 2026-04-28 15:34 | 30.13273 | 120.54848 | 14960 ft | 323 kts | 288° |
| 2026-04-28 15:34 | 30.14088 | 120.52542 | 14652 ft | 305 kts | 288° |
| 2026-04-28 15:34 | 30.14868 | 120.50331 | 14358 ft | 289 kts | 288° |
| 2026-04-28 15:34 | 30.15599 | 120.48241 | 14080 ft | 273 kts | 286° |
| 2026-04-28 15:35 | 30.15939 | 120.46191 | 13669 ft | 255 kts | 259° |
| 2026-04-28 15:35 | 30.14496 | 120.42614 | 12602 ft | 246 kts | 242° |
| 2026-04-28 15:35 | 30.13714 | 120.40880 | 12030 ft | 246 kts | 242° |
| 2026-04-28 15:36 | 30.12940 | 120.39139 | 11487 ft | 244 kts | 241° |
| 2026-04-28 15:36 | 30.12175 | 120.37415 | 10965 ft | 241 kts | 241° |
| 2026-04-28 15:36 | 30.11417 | 120.35710 | 10433 ft | 239 kts | 240° |
| 2026-04-28 15:36 | 30.10661 | 120.34010 | 9873 ft | 237 kts | 239° |
| 2026-04-28 15:37 | 30.09912 | 120.32327 | 9289 ft | 237 kts | 239° |
| 2026-04-28 15:37 | 30.09158 | 120.30637 | 8671 ft | 240 kts | 239° |
| 2026-04-28 15:37 | 30.08386 | 120.28910 | 8011 ft | 244 kts | 238° |
| 2026-04-28 15:37 | 30.07868 | 120.27748 | 7575 ft | 247 kts | 238° |
| 2026-04-28 15:38 | 30.06835 | 120.25427 | 6928 ft | 243 kts | 238° |
| 2026-04-28 15:38 | 30.06056 | 120.23684 | 6388 ft | 244 kts | 237° |
| 2026-04-28 15:38 | 30.05314 | 120.21918 | 5805 ft | 250 kts | 248° |
| 2026-04-28 15:38 | 30.05248 | 120.19939 | 5183 ft | 257 kts | 290° |
| 2026-04-28 15:39 | 30.06186 | 120.18265 | 4718 ft | 246 kts | 327° |
| 2026-04-28 15:39 | 30.07629 | 120.17314 | 4312 ft | 234 kts | 341° |
| 2026-04-28 15:39 | 30.09108 | 120.16519 | 4137 ft | 233 kts | 341° |
| 2026-04-28 15:39 | 30.10592 | 120.15806 | 4132 ft | 228 kts | 355° |
| 2026-04-28 15:40 | 30.12081 | 120.15959 | 4121 ft | 209 kts | 30° |
| 2026-04-28 15:40 | 30.13206 | 120.16916 | 3859 ft | 198 kts | 54° |
| 2026-04-28 15:40 | 30.13908 | 120.18246 | 3474 ft | 192 kts | 63° |
| 2026-04-28 15:40 | 30.14489 | 120.19614 | 3182 ft | 186 kts | 64° |
| 2026-04-28 15:41 | 30.15052 | 120.20956 | 3154 ft | 187 kts | 63° |
| 2026-04-28 15:41 | 30.15628 | 120.22304 | 3152 ft | 188 kts | 63° |
| 2026-04-28 15:41 | 30.16218 | 120.23659 | 3148 ft | 189 kts | 63° |
| 2026-04-28 15:41 | 30.16814 | 120.25015 | 3009 ft | 188 kts | 62° |
| 2026-04-28 15:42 | 30.17405 | 120.26352 | 2762 ft | 187 kts | 62° |
| 2026-04-28 15:42 | 30.17982 | 120.27656 | 2498 ft | 178 kts | 61° |
| 2026-04-28 15:42 | 30.18531 | 120.28898 | 2315 ft | 166 kts | 61° |
| 2026-04-28 15:42 | 30.19032 | 120.30032 | 2117 ft | 152 kts | 60° |
| 2026-04-28 15:43 | 30.19490 | 120.31067 | 1932 ft | 140 kts | 59° |
| 2026-04-28 15:43 | 30.19925 | 120.32048 | 1723 ft | 137 kts | 59° |
| 2026-04-28 15:43 | 30.20363 | 120.33032 | 1522 ft | 136 kts | 60° |
| 2026-04-28 15:43 | 30.20790 | 120.33997 | 1336 ft | 136 kts | 59° |
| 2026-04-28 15:44 | 30.21225 | 120.34978 | 1152 ft | 135 kts | 61° |
| 2026-04-28 15:44 | 30.21649 | 120.35938 | 970 ft | 132 kts | 58° |
| 2026-04-28 15:44 | 30.22051 | 120.36846 | 790 ft | 124 kts | 59° |
| 2026-04-28 15:44 | 30.22439 | 120.37719 | 616 ft | 123 kts | 59° |
| 2026-04-28 15:45 | 30.22824 | 120.38604 | 415 ft | 124 kts | 58° |
| 2026-04-28 15:45 | 30.23229 | 120.39492 | 310 ft | 123 kts | 60° |
| 2026-04-28 15:45 | 30.23622 | 120.40374 | 174 ft | 125 kts | 60° |
| 2026-04-28 15:45 | 30.24019 | 120.41273 | 43 ft | 125 kts | 60° |
| 2026-04-28 15:46 | 30.24386 | 120.42082 | 29 ft | 96 kts | 64° |
| 2026-04-28 15:46 | 30.24542 | 120.42529 | 29 ft | 32 kts | 82° |
| 2026-04-28 15:46 | 30.24559 | 120.42729 | 29 ft | 14 kts | 96° |
| 2026-04-28 15:46 | 30.24530 | 120.42792 | 29 ft | 6 kts | 164° |
| 2026-04-28 15:47 | 30.24482 | 120.42768 | 29 ft | 8 kts | 225° |
| 2026-04-28 15:47 | 30.24427 | 120.42754 | 29 ft | 9 kts | 154° |
| 2026-04-28 15:47 | 30.24366 | 120.42793 | 29 ft | 10 kts | 152° |
| 2026-04-28 15:47 | 30.24299 | 120.42792 | 29 ft | 8 kts | 195° |
| 2026-04-28 15:48 | 30.24238 | 120.42815 | 29 ft | 9 kts | 153° |
| 2026-04-28 15:48 | 30.24174 | 120.42853 | 29 ft | 8 kts | 150° |
| 2026-04-28 15:48 | 30.24132 | 120.42879 | 29 ft | 6 kts | 162° |
| 2026-04-28 15:48 | 30.24104 | 120.42856 | 29 ft | 3 kts | 238° |
| 2026-04-28 15:49 | 30.24095 | 120.42836 | 29 ft | 0 kts | 243° |
| 2026-04-28 15:49 | 30.24093 | 120.42831 | 29 ft | 0 kts | 242° |
| 2026-04-28 15:49 | 30.24092 | 120.42828 | 29 ft | 0 kts | 242° |